Time;durP1;ratioP1;P1;durP2;ratioP2;P2;SDS_P1;SDS_P2;PMS_P1;PMS_P2;Temp;Humidity;BMP_temperature;BMP_pressure;BME280_temperature;BME280_humidity;BME280_pressure;Samples;Min_cycle;Max_cycle;Signal;HPM_P1;HPM_P2
2022/07/16 00:01:22;;;;;;;;;;;;;;;;;;1041456;28;4411;-52
2022/07/16 00:01:47;;;;;;;;;;;;;;;;;;1041268;28;3405;-50
2022/07/16 00:02:17;;;;;;;;;;;;;;;;;;1040866;28;4066;-52
2022/07/16 00:02:47;;;;;;;;;;;;;;;;;;1041826;28;1476;-54
2022/07/16 00:03:18;;;;;;;;;;;;;;;;;;1036316;28;3889;-56
2022/07/16 00:03:57;;;;;;;;;;;;;;;;;;1035656;28;1608;-50
2022/07/16 00:04:28;;;;;;;;;;;;;;;;;;1037084;28;3947;-53
2022/07/16 00:04:58;;;;;;;;;;;;;;;;;;1040740;28;3891;-52
2022/07/16 00:05:28;;;;;;;;;;;;;;;;;;1040658;28;1803;-52
2022/07/16 00:05:59;;;;;;;;;;;;;;;;;;1040397;28;4555;-53
2022/07/16 00:06:29;;;;;;;;;;;;;;;;;;1041080;28;2037;-49
2022/07/16 00:06:59;;;;;;;;;;;;;;;;;;1038832;28;3971;-51
2022/07/16 00:07:30;;;;;;;;;;;;;;;;;;1042220;28;1690;-52
2022/07/16 00:08:06;;;;;;;;;;;;;;;;;;1040367;28;4063;-53
2022/07/16 00:08:43;;;;;;;;;;;;;;;;;;1044892;28;1406;-49
2022/07/16 00:09:20;;;;;;;;;;;;;;;;;;1043588;28;3935;-52
2022/07/16 00:09:51;;;;;;;;;;;;;;;;;;1045836;28;1675;-53
2022/07/16 00:10:21;;;;;;;;;;;;;;;;;;1044734;28;4077;-52
2022/07/16 00:10:51;;;;;;;;;;;;;;;;;;1045512;28;1587;-51
2022/07/16 00:11:21;;;;;;;;;;;;;;;;;;1044468;28;4408;-53
2022/07/16 00:11:52;;;;;;;;;;;;;;;;;;1045970;28;1373;-52
2022/07/16 00:12:22;;;;;;;;;;;;;;;;;;1044875;28;4273;-50
2022/07/16 00:12:52;;;;;;;;;;;;;;;;;;1045430;28;1612;-52
2022/07/16 00:13:23;;;;;;;;;;;;;;;;;;1044051;28;3840;-52
2022/07/16 00:13:53;;;;;;;;;;;;;;;;;;1045746;28;1114;-52
2022/07/16 00:14:23;;;;;;;;;;;;;;;;;;1044678;28;3945;-52
2022/07/16 00:14:53;;;;;;;;;;;;;;;;;;1045184;28;1585;-52
2022/07/16 00:15:24;;;;;;;;;;;;;;;;;;1045904;28;3784;-52
2022/07/16 00:15:55;;;;;;;;;;;;;;;;;;1045365;28;1681;-53
2022/07/16 00:16:25;;;;;;;;;;;;;;;;;;1044839;28;3908;-54
2022/07/16 00:16:55;;;;;;;;;;;;;;;;;;1044186;28;1639;-49
2022/07/16 00:17:26;;;;;;;;;;;;;;;;;;1045370;28;3923;-55
2022/07/16 00:19:33;;;;;;;;;;;;;;;;;;1044068;28;3819;-53
2022/07/16 00:20:04;;;;;;;;;;;;;;;;;;1045438;28;4560;-49
2022/07/16 00:20:35;;;;;;;;;;;;;;;;;;1044945;28;1659;-51
2022/07/16 00:21:05;;;;;;;;;;;;;;;;;;1044821;28;3959;-52
2022/07/16 00:21:35;;;;;;;;;;;;;;;;;;1045254;28;1510;-51
2022/07/16 00:22:06;;;;;;;;;;;;;;;;;;1044978;28;3890;-51
2022/07/16 00:22:36;;;;;;;;;;;;;;;;;;1045845;28;2111;-51
2022/07/16 00:23:07;;;;;;;;;;;;;;;;;;1045179;28;4401;-51
2022/07/16 00:23:37;;;;;;;;;;;;;;;;;;1044948;28;1673;-55
2022/07/16 00:24:07;;;;;;;;;;;;;;;;;;1044217;28;3946;-52
2022/07/16 00:24:37;;;;;;;;;;;;;;;;;;1044095;28;1647;-55
2022/07/16 00:25:08;;;;;;;;;;;;;;;;;;1045056;28;4044;-51
2022/07/16 00:25:38;;;;;;;;;;;;;;;;;;1043862;28;1785;-51
2022/07/16 00:26:08;;;;;;;;;;;;;;;;;;1045649;28;4016;-51
2022/07/16 00:26:39;;;;;;;;;;;;;;;;;;1044461;28;1706;-53
2022/07/16 00:27:09;;;;;;;;;;;;;;;;;;1045447;28;3950;-52
2022/07/16 00:27:39;;;;;;;;;;;;;;;;;;1047084;28;1582;-53
2022/07/16 00:28:09;;;;;;;;;;;;;;;;;;1042950;28;3880;-48
2022/07/16 00:28:47;;;;;;;;;;;;;;;;;;1045586;28;1852;-55
2022/07/16 00:29:18;;;;;;;;;;;;;;;;;;1044337;28;3814;-52
2022/07/16 00:29:48;;;;;;;;;;;;;;;;;;1039530;28;1565;-52
2022/07/16 00:30:19;;;;;;;;;;;;;;;;;;1040261;28;4026;-53
2022/07/16 00:30:49;;;;;;;;;;;;;;;;;;1036162;28;1605;-53
2022/07/16 00:31:19;;;;;;;;;;;;;;;;;;1036704;28;4483;-52
2022/07/16 00:31:50;;;;;;;;;;;;;;;;;;1041960;28;1752;-51
2022/07/16 00:32:20;;;;;;;;;;;;;;;;;;1041913;28;3788;-54
2022/07/16 00:32:50;;;;;;;;;;;;;;;;;;1045936;28;1696;-51
2022/07/16 00:33:21;;;;;;;;;;;;;;;;;;1045395;28;4135;-52
2022/07/16 00:33:51;;;;;;;;;;;;;;;;;;1045170;28;1664;-54
2022/07/16 00:34:21;;;;;;;;;;;;;;;;;;1044412;28;4049;-53
2022/07/16 00:34:52;;;;;;;;;;;;;;;;;;1045614;28;1295;-52
2022/07/16 00:35:22;;;;;;;;;;;;;;;;;;1044325;28;3813;-54
2022/07/16 00:35:52;;;;;;;;;;;;;;;;;;1045387;28;1664;-52
2022/07/16 00:36:22;;;;;;;;;;;;;;;;;;1043931;28;3866;-55
2022/07/16 00:36:53;;;;;;;;;;;;;;;;;;1045440;28;1380;-52
2022/07/16 00:37:23;;;;;;;;;;;;;;;;;;1043824;28;4461;-51
2022/07/16 00:37:53;;;;;;;;;;;;;;;;;;1042213;28;1843;-53
2022/07/16 00:38:24;;;;;;;;;;;;;;;;;;1041079;28;3809;-54
2022/07/16 00:38:54;;;;;;;;;;;;;;;;;;1042144;28;1678;-54
2022/07/16 00:39:25;;;;;;;;;;;;;;;;;;1041330;28;4068;-50
2022/07/16 00:39:55;;;;;;;;;;;;;;;;;;1045672;28;1364;-50
2022/07/16 00:40:25;;;;;;;;;;;;;;;;;;1044905;28;4027;-49
2022/07/16 00:40:55;;;;;;;;;;;;;;;;;;1046035;28;1746;-50
2022/07/16 00:41:25;;;;;;;;;;;;;;;;;;1044635;28;4431;-50
2022/07/16 00:41:56;;;;;;;;;;;;;;;;;;1044925;28;1646;-53
2022/07/16 00:42:26;;;;;;;;;;;;;;;;;;1044295;28;3764;-53
2022/07/16 00:42:56;;;;;;;;;;;;;;;;;;1040323;28;1666;-55
2022/07/16 00:43:27;;;;;;;;;;;;;;;;;;1040244;28;4158;-55
2022/07/16 00:44:05;;;;;;;;;;;;;;;;;;1041038;28;1451;-52
2022/07/16 00:44:35;;;;;;;;;;;;;;;;;;1041021;28;3898;-51
2022/07/16 00:45:05;;;;;;;;;;;;;;;;;;1043578;28;4392;-51
2022/07/16 00:45:36;;;;;;;;;;;;;;;;;;1041439;28;1647;-53
2022/07/16 00:46:06;;;;;;;;;;;;;;;;;;1040964;28;4045;-52
2022/07/16 00:46:37;;;;;;;;;;;;;;;;;;1038337;28;1698;-50
2022/07/16 00:47:07;;;;;;;;;;;;;;;;;;1037402;28;4956;-53
2022/07/16 00:47:38;;;;;;;;;;;;;;;;;;1042556;28;1602;-50
2022/07/16 00:48:08;;;;;;;;;;;;;;;;;;1041711;28;4068;-52
2022/07/16 00:48:38;;;;;;;;;;;;;;;;;;1045186;28;1659;-51
2022/07/16 00:49:09;;;;;;;;;;;;;;;;;;1044869;28;4224;-56
2022/07/16 00:49:39;;;;;;;;;;;;;;;;;;1045524;28;1577;-54
2022/07/16 00:50:10;;;;;;;;;;;;;;;;;;1044291;28;3855;-50
2022/07/16 00:50:41;;;;;;;;;;;;;;;;;;1044259;28;1695;-55
2022/07/16 00:51:11;;;;;;;;;;;;;;;;;;1044220;28;3982;-52
2022/07/16 00:51:46;;;;;;;;;;;;;;;;;;1045011;28;1567;-52
2022/07/16 00:52:16;;;;;;;;;;;;;;;;;;1039420;28;3903;-50
2022/07/16 00:52:46;;;;;;;;;;;;;;;;;;1040398;28;1795;-54
2022/07/16 00:53:17;;;;;;;;;;;;;;;;;;1039717;28;4576;-51
2022/07/16 00:53:47;;;;;;;;;;;;;;;;;;1040576;28;1689;-50
2022/07/16 00:54:18;;;;;;;;;;;;;;;;;;1042519;28;3990;-51
2022/07/16 00:54:49;;;;;;;;;;;;;;;;;;1042706;28;1713;-52
2022/07/16 00:55:19;;;;;;;;;;;;;;;;;;1042893;28;4247;-50
2022/07/16 00:55:49;;;;;;;;;;;;;;;;;;1042997;28;1589;-53
2022/07/16 00:56:20;;;;;;;;;;;;;;;;;;1043771;28;4344;-53
2022/07/16 00:56:50;;;;;;;;;;;;;;;;;;1044877;28;1586;-50
2022/07/16 00:57:21;;;;;;;;;;;;;;;;;;1043173;28;3770;-49
2022/07/16 00:57:51;;;;;;;;;;;;;;;;;;1044674;28;1379;-51
2022/07/16 00:58:21;;;;;;;;;;;;;;;;;;1044007;28;4184;-54
2022/07/16 00:58:53;;;;;;;;;;;;;;;;;;1044766;28;1674;-50
2022/07/16 00:59:30;;;;;;;;;;;;;;;;;;1043536;28;4031;-53
2022/07/16 01:00:00;;;;;;;;;;;;;;;;;;1039546;28;3831;-54
2022/07/16 01:00:37;;;;;;;;;;;;;;;;;;1036674;28;1761;-55
2022/07/16 01:01:08;;;;;;;;;;;;;;;;;;1036779;28;4065;-54
2022/07/16 01:01:38;;;;;;;;;;;;;;;;;;1037904;28;1705;-51
2022/07/16 01:02:09;;;;;;;;;;;;;;;;;;1042245;28;3869;-52
2022/07/16 01:02:39;;;;;;;;;;;;;;;;;;1039535;28;1696;-51
2022/07/16 01:03:10;;;;;;;;;;;;;;;;;;1041142;28;3789;-54
2022/07/16 01:03:41;;;;;;;;;;;;;;;;;;1039827;28;1596;-50
2022/07/16 01:04:11;;;;;;;;;;;;;;;;;;1040293;28;4369;-50
2022/07/16 01:04:42;;;;;;;;;;;;;;;;;;1039753;28;1744;-51
2022/07/16 01:05:12;;;;;;;;;;;;;;;;;;1040439;28;3912;-53
2022/07/16 01:05:43;;;;;;;;;;;;;;;;;;1039436;28;1919;-53
2022/07/16 01:06:14;;;;;;;;;;;;;;;;;;1045260;28;4013;-52
2022/07/16 01:06:45;;;;;;;;;;;;;;;;;;1045791;28;1457;-55
2022/07/16 01:07:16;;;;;;;;;;;;;;;;;;1045185;28;3965;-49
2022/07/16 01:07:46;;;;;;;;;;;;;;;;;;1044155;28;1660;-55
2022/07/16 01:08:17;;;;;;;;;;;;;;;;;;1045767;28;4003;-53
2022/07/16 01:09:01;;;;;;;;;;;;;;;;;;1047007;28;1831;-54
2022/07/16 01:09:32;;;;;;;;;;;;;;;;;;1046468;28;3908;-53
2022/07/16 01:10:03;;;;;;;;;;;;;;;;;;1040966;28;4062;-52
2022/07/16 01:10:34;;;;;;;;;;;;;;;;;;1041313;28;1724;-52
2022/07/16 01:11:05;;;;;;;;;;;;;;;;;;1041522;28;3928;-55
2022/07/16 01:11:35;;;;;;;;;;;;;;;;;;1039086;28;1993;-54
2022/07/16 01:12:06;;;;;;;;;;;;;;;;;;1042400;28;6118;-54
2022/07/16 01:12:36;;;;;;;;;;;;;;;;;;1043252;28;1883;-50
2022/07/16 01:13:08;;;;;;;;;;;;;;;;;;1037923;28;4115;-52
2022/07/16 01:13:40;;;;;;;;;;;;;;;;;;1042022;28;1736;-53
2022/07/16 01:14:10;;;;;;;;;;;;;;;;;;1041567;28;4034;-54
2022/07/16 01:14:41;;;;;;;;;;;;;;;;;;1041827;28;1655;-54
2022/07/16 01:15:12;;;;;;;;;;;;;;;;;;1045289;28;3966;-48
2022/07/16 01:15:42;;;;;;;;;;;;;;;;;;1045143;28;1684;-55
2022/07/16 01:16:13;;;;;;;;;;;;;;;;;;1044995;28;3872;-53
2022/07/16 01:16:43;;;;;;;;;;;;;;;;;;1044782;28;1708;-50
2022/07/16 01:17:14;;;;;;;;;;;;;;;;;;1045543;28;3915;-50
2022/07/16 01:17:44;;;;;;;;;;;;;;;;;;1046055;28;1309;-51
2022/07/16 01:18:14;;;;;;;;;;;;;;;;;;1045496;28;3839;-53
2022/07/16 01:18:51;;;;;;;;;;;;;;;;;;1045875;28;1384;-51
2022/07/16 01:19:22;;;;;;;;;;;;;;;;;;1045390;28;3921;-49
2022/07/16 01:19:52;;;;;;;;;;;;;;;;;;1046514;28;1188;-54
2022/07/16 01:20:22;;;;;;;;;;;;;;;;;;1045342;28;4396;-52
2022/07/16 01:20:53;;;;;;;;;;;;;;;;;;1045351;28;1503;-53
2022/07/16 01:21:23;;;;;;;;;;;;;;;;;;1045636;28;3792;-54
2022/07/16 01:21:53;;;;;;;;;;;;;;;;;;1046237;28;1643;-50
2022/07/16 01:22:25;;;;;;;;;;;;;;;;;;1044785;28;3979;-50
2022/07/16 01:22:55;;;;;;;;;;;;;;;;;;1045452;28;1584;-55
2022/07/16 01:23:26;;;;;;;;;;;;;;;;;;1044932;28;3950;-52
2022/07/16 01:23:56;;;;;;;;;;;;;;;;;;1042605;28;1748;-55
2022/07/16 01:24:26;;;;;;;;;;;;;;;;;;1040598;28;3895;-51
2022/07/16 01:24:57;;;;;;;;;;;;;;;;;;1041693;28;1800;-55
2022/07/16 01:25:27;;;;;;;;;;;;;;;;;;1041593;28;3906;-51
2022/07/16 01:25:57;;;;;;;;;;;;;;;;;;1045732;28;1620;-54
2022/07/16 01:26:28;;;;;;;;;;;;;;;;;;1044661;28;3711;-53
2022/07/16 01:26:58;;;;;;;;;;;;;;;;;;1045740;28;3816;-50
2022/07/16 01:27:28;;;;;;;;;;;;;;;;;;1041316;28;1871;-54
2022/07/16 01:27:58;;;;;;;;;;;;;;;;;;1041340;28;4114;-50
2022/07/16 01:28:29;;;;;;;;;;;;;;;;;;1040530;28;1369;-52
2022/07/16 01:28:59;;;;;;;;;;;;;;;;;;1037110;28;4022;-53
2022/07/16 01:29:29;;;;;;;;;;;;;;;;;;1045803;28;1633;-57
2022/07/16 01:29:59;;;;;;;;;;;;;;;;;;1046423;28;4381;-52
2022/07/16 01:30:30;;;;;;;;;;;;;;;;;;1045212;28;1948;-52
2022/07/16 01:31:00;;;;;;;;;;;;;;;;;;1044950;28;4730;-53
2022/07/16 01:31:30;;;;;;;;;;;;;;;;;;1045337;28;1902;-51
2022/07/16 01:32:01;;;;;;;;;;;;;;;;;;1045479;28;3807;-49
2022/07/16 01:32:31;;;;;;;;;;;;;;;;;;1046711;28;1661;-50
2022/07/16 01:33:17;;;;;;;;;;;;;;;;;;1045712;28;4047;-51
2022/07/16 01:34:24;;;;;;;;;;;;;;;;;;1045612;28;1940;-52
2022/07/16 01:34:38;;;;;;;;;;;;;;;;;;1042375;28;3820;-52
2022/07/16 01:35:08;;;;;;;;;;;;;;;;;;1043948;28;4021;-53
2022/07/16 01:35:38;;;;;;;;;;;;;;;;;;1037851;28;1780;-52
2022/07/16 01:36:13;;;;;;;;;;;;;;;;;;1037276;28;4059;-49
2022/07/16 01:36:54;;;;;;;;;;;;;;;;;;1041122;28;1563;-56
2022/07/16 01:37:24;;;;;;;;;;;;;;;;;;1044069;28;3828;-51
2022/07/16 01:37:54;;;;;;;;;;;;;;;;;;1042819;28;1725;-52
2022/07/16 01:38:25;;;;;;;;;;;;;;;;;;1042888;28;3958;-51
2022/07/16 01:38:55;;;;;;;;;;;;;;;;;;1043403;28;1474;-52
2022/07/16 01:39:26;;;;;;;;;;;;;;;;;;1043079;28;3852;-51
2022/07/16 01:39:57;;;;;;;;;;;;;;;;;;1040725;28;1862;-54
2022/07/16 01:40:27;;;;;;;;;;;;;;;;;;1041894;28;3969;-50
2022/07/16 01:40:58;;;;;;;;;;;;;;;;;;1040757;28;1298;-51
2022/07/16 01:41:28;;;;;;;;;;;;;;;;;;1041722;28;3845;-53
2022/07/16 01:41:59;;;;;;;;;;;;;;;;;;1046581;28;4242;-51
2022/07/16 01:42:29;;;;;;;;;;;;;;;;;;1042989;28;1636;-54
2022/07/16 01:43:00;;;;;;;;;;;;;;;;;;1042002;28;3790;-53
2022/07/16 01:43:30;;;;;;;;;;;;;;;;;;1042777;28;1533;-51
2022/07/16 01:44:00;;;;;;;;;;;;;;;;;;1042516;28;4428;-52
2022/07/16 01:44:32;;;;;;;;;;;;;;;;;;1045693;28;1606;-54
2022/07/16 01:45:02;;;;;;;;;;;;;;;;;;1045347;28;4026;-54
2022/07/16 01:45:33;;;;;;;;;;;;;;;;;;1045700;28;1687;-55
2022/07/16 01:46:03;;;;;;;;;;;;;;;;;;1046440;28;3962;-53
2022/07/16 01:46:33;;;;;;;;;;;;;;;;;;1045888;28;1671;-53
2022/07/16 01:47:06;;;;;;;;;;;;;;;;;;1044679;28;3972;-51
2022/07/16 01:47:36;;;;;;;;;;;;;;;;;;1045362;28;1745;-55
2022/07/16 01:48:07;;;;;;;;;;;;;;;;;;1044501;28;3999;-50
2022/07/16 01:48:37;;;;;;;;;;;;;;;;;;1044643;28;1157;-53
2022/07/16 01:49:07;;;;;;;;;;;;;;;;;;1045424;28;3902;-50
2022/07/16 01:49:38;;;;;;;;;;;;;;;;;;1042707;28;1653;-51
2022/07/16 01:50:08;;;;;;;;;;;;;;;;;;1042439;28;4420;-54
2022/07/16 01:50:40;;;;;;;;;;;;;;;;;;1042390;28;1669;-55
2022/07/16 01:51:10;;;;;;;;;;;;;;;;;;1041793;28;4120;-54
2022/07/16 01:51:40;;;;;;;;;;;;;;;;;;1042517;28;1593;-54
2022/07/16 01:52:16;;;;;;;;;;;;;;;;;;1042166;28;3823;-51
2022/07/16 01:52:47;;;;;;;;;;;;;;;;;;1043534;28;1621;-53
2022/07/16 01:53:18;;;;;;;;;;;;;;;;;;1042086;28;4428;-54
2022/07/16 01:53:48;;;;;;;;;;;;;;;;;;1044682;28;1588;-50
2022/07/16 01:54:18;;;;;;;;;;;;;;;;;;1044191;28;4046;-51
2022/07/16 01:54:50;;;;;;;;;;;;;;;;;;1045056;28;1765;-50
2022/07/16 01:55:20;;;;;;;;;;;;;;;;;;1044413;28;4010;-53
2022/07/16 01:55:51;;;;;;;;;;;;;;;;;;1045893;28;1598;-50
2022/07/16 01:56:21;;;;;;;;;;;;;;;;;;1045205;28;3982;-50
2022/07/16 01:56:51;;;;;;;;;;;;;;;;;;1046248;28;1617;-48
2022/07/16 01:57:21;;;;;;;;;;;;;;;;;;1044740;28;4070;-50
2022/07/16 01:57:52;;;;;;;;;;;;;;;;;;1042512;28;1647;-52
2022/07/16 01:58:22;;;;;;;;;;;;;;;;;;1042769;28;3934;-52
2022/07/16 01:58:52;;;;;;;;;;;;;;;;;;1042650;28;1313;-52
2022/07/16 01:59:23;;;;;;;;;;;;;;;;;;1042771;28;3991;-53
2022/07/16 01:59:53;;;;;;;;;;;;;;;;;;1045984;28;1589;-49
2022/07/16 02:00:23;;;;;;;;;;;;;;;;;;1039510;28;3882;-53
2022/07/16 02:00:54;;;;;;;;;;;;;;;;;;1041776;28;3858;-52
2022/07/16 02:01:24;;;;;;;;;;;;;;;;;;1040917;28;3882;-51
2022/07/16 02:01:54;;;;;;;;;;;;;;;;;;1041075;28;1289;-53
2022/07/16 02:02:24;;;;;;;;;;;;;;;;;;1040043;28;4200;-53
2022/07/16 02:02:55;;;;;;;;;;;;;;;;;;1041325;28;1608;-53
2022/07/16 02:03:25;;;;;;;;;;;;;;;;;;1045700;28;3862;-50
2022/07/16 02:03:55;;;;;;;;;;;;;;;;;;1046444;28;1720;-53
2022/07/16 02:04:26;;;;;;;;;;;;;;;;;;1046655;28;4000;-49
2022/07/16 02:04:56;;;;;;;;;;;;;;;;;;1046910;28;1645;-49
2022/07/16 02:05:26;;;;;;;;;;;;;;;;;;1042565;28;3786;-53
2022/07/16 02:05:57;;;;;;;;;;;;;;;;;;1043200;28;1638;-49
2022/07/16 02:06:27;;;;;;;;;;;;;;;;;;1042424;28;3749;-53
2022/07/16 02:06:57;;;;;;;;;;;;;;;;;;1042964;28;1322;-50
2022/07/16 02:07:28;;;;;;;;;;;;;;;;;;1045359;28;3782;-55
2022/07/16 02:07:58;;;;;;;;;;;;;;;;;;1044624;28;4046;-52
2022/07/16 02:08:34;;;;;;;;;;;;;;;;;;1045691;28;1485;-51
2022/07/16 02:09:11;;;;;;;;;;;;;;;;;;1045006;28;3952;-54
2022/07/16 02:09:48;;;;;;;;;;;;;;;;;;1044288;28;1729;-51
2022/07/16 02:10:19;;;;;;;;;;;;;;;;;;1045240;28;4286;-51
2022/07/16 02:10:49;;;;;;;;;;;;;;;;;;1042779;28;1676;-50
2022/07/16 02:11:19;;;;;;;;;;;;;;;;;;1043036;28;3910;-52
2022/07/16 02:11:49;;;;;;;;;;;;;;;;;;1043179;28;1722;-51
2022/07/16 02:12:20;;;;;;;;;;;;;;;;;;1042438;28;3948;-51
2022/07/16 02:12:50;;;;;;;;;;;;;;;;;;1045828;28;1442;-51
2022/07/16 02:13:20;;;;;;;;;;;;;;;;;;1041526;28;3973;-51
2022/07/16 02:13:51;;;;;;;;;;;;;;;;;;1042720;28;1910;-51
2022/07/16 02:14:21;;;;;;;;;;;;;;;;;;1041531;28;3796;-54
2022/07/16 02:14:51;;;;;;;;;;;;;;;;;;1043183;28;1473;-53
2022/07/16 02:15:22;;;;;;;;;;;;;;;;;;1043097;28;4019;-51
2022/07/16 02:15:52;;;;;;;;;;;;;;;;;;1043899;28;1666;-52
2022/07/16 02:16:23;;;;;;;;;;;;;;;;;;1042169;28;3976;-54
2022/07/16 02:16:53;;;;;;;;;;;;;;;;;;1042907;28;1649;-55
2022/07/16 02:17:25;;;;;;;;;;;;;;;;;;1045497;28;3831;-54
2022/07/16 02:17:55;;;;;;;;;;;;;;;;;;1044825;28;1679;-51
2022/07/16 02:18:25;;;;;;;;;;;;;;;;;;1040391;28;3842;-52
2022/07/16 02:19:02;;;;;;;;;;;;;;;;;;1041403;28;3906;-54
2022/07/16 02:19:33;;;;;;;;;;;;;;;;;;1046344;28;1590;-55
2022/07/16 02:20:03;;;;;;;;;;;;;;;;;;1044735;28;3830;-53
2022/07/16 02:20:34;;;;;;;;;;;;;;;;;;1046282;28;1385;-50
2022/07/16 02:21:04;;;;;;;;;;;;;;;;;;1045399;28;3782;-51
2022/07/16 02:21:34;;;;;;;;;;;;;;;;;;1045829;28;1732;-55
2022/07/16 02:22:11;;;;;;;;;;;;;;;;;;1045481;28;3960;-52
2022/07/16 02:22:42;;;;;;;;;;;;;;;;;;1042627;28;1426;-51
2022/07/16 02:23:12;;;;;;;;;;;;;;;;;;1042175;28;3936;-51
2022/07/16 02:23:42;;;;;;;;;;;;;;;;;;1043087;28;1664;-50
2022/07/16 02:24:13;;;;;;;;;;;;;;;;;;1042087;28;4443;-50
2022/07/16 02:24:43;;;;;;;;;;;;;;;;;;1046016;28;1263;-53
2022/07/16 02:25:13;;;;;;;;;;;;;;;;;;1045638;28;3883;-51
2022/07/16 02:25:44;;;;;;;;;;;;;;;;;;1045639;28;1653;-54
2022/07/16 02:26:14;;;;;;;;;;;;;;;;;;1045390;28;4421;-54
2022/07/16 02:26:44;;;;;;;;;;;;;;;;;;1045280;28;1578;-54
2022/07/16 02:27:14;;;;;;;;;;;;;;;;;;1045047;28;3965;-52
2022/07/16 02:28:34;;;;;;;;;;;;;;;;;;1045042;28;3642;-53
2022/07/16 02:29:04;;;;;;;;;;;;;;;;;;1044863;28;3936;-49
2022/07/16 02:29:35;;;;;;;;;;;;;;;;;;1045371;28;1660;-53
2022/07/16 02:30:05;;;;;;;;;;;;;;;;;;1042715;28;4057;-53
2022/07/16 02:30:40;;;;;;;;;;;;;;;;;;1042252;28;1566;-55
2022/07/16 02:31:10;;;;;;;;;;;;;;;;;;1042090;28;3808;-53
2022/07/16 02:31:40;;;;;;;;;;;;;;;;;;1043391;28;1968;-52
2022/07/16 02:32:10;;;;;;;;;;;;;;;;;;1044559;28;4220;-56
2022/07/16 02:32:41;;;;;;;;;;;;;;;;;;1046389;28;1450;-50
2022/07/16 02:33:11;;;;;;;;;;;;;;;;;;1045749;28;4231;-55
2022/07/16 02:33:41;;;;;;;;;;;;;;;;;;1045493;28;1879;-53
2022/07/16 02:34:12;;;;;;;;;;;;;;;;;;1045569;28;4042;-52
2022/07/16 02:34:42;;;;;;;;;;;;;;;;;;1046009;28;1670;-51
2022/07/16 02:35:13;;;;;;;;;;;;;;;;;;1045105;28;3808;-52
2022/07/16 02:35:44;;;;;;;;;;;;;;;;;;1045952;28;1611;-51
2022/07/16 02:36:14;;;;;;;;;;;;;;;;;;1044378;28;4307;-53
2022/07/16 02:36:44;;;;;;;;;;;;;;;;;;1046021;28;1589;-50
2022/07/16 02:37:14;;;;;;;;;;;;;;;;;;1045024;28;4441;-54
2022/07/16 02:37:45;;;;;;;;;;;;;;;;;;1045610;28;1672;-52
2022/07/16 02:38:15;;;;;;;;;;;;;;;;;;1045887;28;3823;-52
2022/07/16 02:38:46;;;;;;;;;;;;;;;;;;1044393;28;1571;-52
2022/07/16 02:39:16;;;;;;;;;;;;;;;;;;1044416;28;4326;-51
2022/07/16 02:39:46;;;;;;;;;;;;;;;;;;1044712;28;1656;-55
2022/07/16 02:40:17;;;;;;;;;;;;;;;;;;1046000;28;3854;-49
2022/07/16 02:40:47;;;;;;;;;;;;;;;;;;1045279;28;1910;-55
2022/07/16 02:41:17;;;;;;;;;;;;;;;;;;1044940;28;3851;-51
2022/07/16 02:41:48;;;;;;;;;;;;;;;;;;1044500;28;1677;-52
2022/07/16 02:42:18;;;;;;;;;;;;;;;;;;1045894;28;4172;-51
2022/07/16 02:42:48;;;;;;;;;;;;;;;;;;1042146;28;1621;-57
2022/07/16 02:43:18;;;;;;;;;;;;;;;;;;1042376;28;3860;-53
2022/07/16 02:43:49;;;;;;;;;;;;;;;;;;1042190;28;1875;-54
2022/07/16 02:44:19;;;;;;;;;;;;;;;;;;1042871;28;3888;-53
2022/07/16 02:44:49;;;;;;;;;;;;;;;;;;1045055;28;1704;-51
2022/07/16 02:45:20;;;;;;;;;;;;;;;;;;1045332;28;4108;-54
2022/07/16 02:45:50;;;;;;;;;;;;;;;;;;1045326;28;1590;-54
2022/07/16 02:46:20;;;;;;;;;;;;;;;;;;1040089;28;3886;-54
2022/07/16 02:46:50;;;;;;;;;;;;;;;;;;1041754;28;1381;-50
2022/07/16 02:47:21;;;;;;;;;;;;;;;;;;1040040;28;3981;-54
2022/07/16 02:47:51;;;;;;;;;;;;;;;;;;1039544;28;1563;-54
2022/07/16 02:48:22;;;;;;;;;;;;;;;;;;1045646;28;3785;-53
2022/07/16 02:48:52;;;;;;;;;;;;;;;;;;1045996;28;1380;-52
2022/07/16 02:49:22;;;;;;;;;;;;;;;;;;1044821;28;3839;-53
2022/07/16 02:49:53;;;;;;;;;;;;;;;;;;1044416;28;1829;-51
2022/07/16 02:50:23;;;;;;;;;;;;;;;;;;1045975;28;3812;-51
2022/07/16 02:50:53;;;;;;;;;;;;;;;;;;1045369;28;1635;-48
2022/07/16 02:51:24;;;;;;;;;;;;;;;;;;1045727;28;3888;-53
2022/07/16 02:51:54;;;;;;;;;;;;;;;;;;1045489;28;1664;-53
2022/07/16 02:52:24;;;;;;;;;;;;;;;;;;1045373;28;3843;-50
2022/07/16 02:52:55;;;;;;;;;;;;;;;;;;1046210;28;1807;-53
2022/07/16 02:53:25;;;;;;;;;;;;;;;;;;1042714;28;3840;-55
2022/07/16 02:53:55;;;;;;;;;;;;;;;;;;1042289;28;1385;-55
2022/07/16 02:54:26;;;;;;;;;;;;;;;;;;1039428;28;4048;-54
2022/07/16 02:54:56;;;;;;;;;;;;;;;;;;1038875;28;1899;-55
2022/07/16 02:55:26;;;;;;;;;;;;;;;;;;1044638;28;3825;-49
2022/07/16 02:56:03;;;;;;;;;;;;;;;;;;1040478;28;4014;-53
2022/07/16 02:56:33;;;;;;;;;;;;;;;;;;1045473;28;1470;-53
2022/07/16 02:57:03;;;;;;;;;;;;;;;;;;1044889;28;3806;-52
2022/07/16 02:57:33;;;;;;;;;;;;;;;;;;1044047;28;1616;-50
2022/07/16 02:58:04;;;;;;;;;;;;;;;;;;1043933;28;3811;-51
2022/07/16 02:58:34;;;;;;;;;;;;;;;;;;1045165;28;1693;-54
2022/07/16 02:59:04;;;;;;;;;;;;;;;;;;1044989;28;4113;-51
2022/07/16 02:59:34;;;;;;;;;;;;;;;;;;1046176;28;1367;-56
2022/07/16 03:00:06;;;;;;;;;;;;;;;;;;1044378;28;4045;-52
2022/07/16 03:00:36;;;;;;;;;;;;;;;;;;1045838;28;1940;-53
2022/07/16 03:01:06;;;;;;;;;;;;;;;;;;1045772;28;4227;-51
2022/07/16 03:01:36;;;;;;;;;;;;;;;;;;1045580;28;1342;-51
2022/07/16 03:02:07;;;;;;;;;;;;;;;;;;1041337;28;3808;-51
2022/07/16 03:02:37;;;;;;;;;;;;;;;;;;1042598;28;1693;-52
2022/07/16 03:03:08;;;;;;;;;;;;;;;;;;1041842;28;4071;-55
2022/07/16 03:03:38;;;;;;;;;;;;;;;;;;1040819;28;1623;-53
2022/07/16 03:04:08;;;;;;;;;;;;;;;;;;1041847;28;4261;-56
2022/07/16 03:04:39;;;;;;;;;;;;;;;;;;1044050;28;1643;-55
2022/07/16 03:05:09;;;;;;;;;;;;;;;;;;1042811;28;4425;-54
2022/07/16 03:05:40;;;;;;;;;;;;;;;;;;1046098;28;1350;-52
2022/07/16 03:06:10;;;;;;;;;;;;;;;;;;1044730;28;4074;-52
2022/07/16 03:06:40;;;;;;;;;;;;;;;;;;1044922;28;1594;-53
2022/07/16 03:07:10;;;;;;;;;;;;;;;;;;1041734;28;4066;-52
2022/07/16 03:07:41;;;;;;;;;;;;;;;;;;1038826;28;1688;-54
2022/07/16 03:08:11;;;;;;;;;;;;;;;;;;1037547;28;3962;-55
2022/07/16 03:08:48;;;;;;;;;;;;;;;;;;1038701;28;1596;-52
2022/07/16 03:09:25;;;;;;;;;;;;;;;;;;1041859;28;4390;-53
2022/07/16 03:10:03;;;;;;;;;;;;;;;;;;1041724;28;4042;-52
2022/07/16 03:10:34;;;;;;;;;;;;;;;;;;1040493;28;1595;-50
2022/07/16 03:11:04;;;;;;;;;;;;;;;;;;1041506;28;4091;-52
2022/07/16 03:11:34;;;;;;;;;;;;;;;;;;1041045;28;1984;-51
2022/07/16 03:12:04;;;;;;;;;;;;;;;;;;1040515;28;3969;-52
2022/07/16 03:12:35;;;;;;;;;;;;;;;;;;1030406;28;1729;-51
2022/07/16 03:13:06;;;;;;;;;;;;;;;;;;1030678;28;4419;-52
2022/07/16 03:13:36;;;;;;;;;;;;;;;;;;1031373;28;1363;-52
2022/07/16 03:14:06;;;;;;;;;;;;;;;;;;1033960;28;4382;-52
2022/07/16 03:14:36;;;;;;;;;;;;;;;;;;1038878;28;1484;-50
2022/07/16 03:15:08;;;;;;;;;;;;;;;;;;1040223;28;4234;-52
2022/07/16 03:15:38;;;;;;;;;;;;;;;;;;1046778;28;1307;-52
2022/07/16 03:16:08;;;;;;;;;;;;;;;;;;1045949;28;3857;-51
2022/07/16 03:16:38;;;;;;;;;;;;;;;;;;1047062;28;1599;-55
2022/07/16 03:17:09;;;;;;;;;;;;;;;;;;1045861;28;3970;-54
2022/07/16 03:17:40;;;;;;;;;;;;;;;;;;1040366;28;1662;-53
2022/07/16 03:18:10;;;;;;;;;;;;;;;;;;1040654;28;4130;-52
2022/07/16 03:18:40;;;;;;;;;;;;;;;;;;1041481;28;1722;-53
2022/07/16 03:19:11;;;;;;;;;;;;;;;;;;1040534;28;3978;-53
2022/07/16 03:19:41;;;;;;;;;;;;;;;;;;1041057;28;1555;-51
2022/07/16 03:20:12;;;;;;;;;;;;;;;;;;1041727;28;3828;-51
2022/07/16 03:20:42;;;;;;;;;;;;;;;;;;1039481;28;1648;-51
2022/07/16 03:21:13;;;;;;;;;;;;;;;;;;1037618;28;4129;-49
2022/07/16 03:21:43;;;;;;;;;;;;;;;;;;1038599;28;1661;-53
2022/07/16 03:22:13;;;;;;;;;;;;;;;;;;1042785;28;3808;-51
2022/07/16 03:22:44;;;;;;;;;;;;;;;;;;1039910;28;1332;-49
2022/07/16 03:23:14;;;;;;;;;;;;;;;;;;1040690;28;4031;-54
2022/07/16 03:23:45;;;;;;;;;;;;;;;;;;1041531;28;1634;-50
2022/07/16 03:24:16;;;;;;;;;;;;;;;;;;1042135;28;4389;-54
2022/07/16 03:24:46;;;;;;;;;;;;;;;;;;1040944;28;1517;-53
2022/07/16 03:25:16;;;;;;;;;;;;;;;;;;1046066;28;4443;-52
2022/07/16 03:25:47;;;;;;;;;;;;;;;;;;1046149;28;1620;-50
2022/07/16 03:26:17;;;;;;;;;;;;;;;;;;1046693;28;4190;-56
2022/07/16 03:26:47;;;;;;;;;;;;;;;;;;1046466;28;1727;-54
2022/07/16 03:27:25;;;;;;;;;;;;;;;;;;1040235;28;4064;-53
2022/07/16 03:27:55;;;;;;;;;;;;;;;;;;1040651;28;1709;-54
2022/07/16 03:28:25;;;;;;;;;;;;;;;;;;1041151;28;3831;-53
2022/07/16 03:28:55;;;;;;;;;;;;;;;;;;1040444;28;1761;-53
2022/07/16 03:29:27;;;;;;;;;;;;;;;;;;1039851;28;3759;-55
2022/07/16 03:29:57;;;;;;;;;;;;;;;;;;1040384;28;1857;-52
2022/07/16 03:30:27;;;;;;;;;;;;;;;;;;1039730;28;3880;-51
2022/07/16 03:30:57;;;;;;;;;;;;;;;;;;1041710;28;1645;-53
2022/07/16 03:31:28;;;;;;;;;;;;;;;;;;1040916;28;4182;-52
2022/07/16 03:31:58;;;;;;;;;;;;;;;;;;1040551;28;3912;-49
2022/07/16 03:32:28;;;;;;;;;;;;;;;;;;1040503;28;1640;-51
2022/07/16 03:32:58;;;;;;;;;;;;;;;;;;1040628;28;4115;-53
2022/07/16 03:33:29;;;;;;;;;;;;;;;;;;1040886;28;1400;-52
2022/07/16 03:33:59;;;;;;;;;;;;;;;;;;1039410;28;4321;-51
2022/07/16 03:34:29;;;;;;;;;;;;;;;;;;1042104;28;1768;-53
2022/07/16 03:35:02;;;;;;;;;;;;;;;;;;1042008;28;4346;-55
2022/07/16 03:35:33;;;;;;;;;;;;;;;;;;1041635;28;1660;-53
2022/07/16 03:36:03;;;;;;;;;;;;;;;;;;1042327;28;3973;-53
2022/07/16 03:36:33;;;;;;;;;;;;;;;;;;1039408;28;1946;-50
2022/07/16 03:37:04;;;;;;;;;;;;;;;;;;1042417;28;4344;-51
2022/07/16 03:38:57;;;;;;;;;;;;;;;;;;1042422;28;1617;-49
2022/07/16 03:39:13;;;;;;;;;;;;;;;;;;1040949;28;3884;-49